Latest Coastal Weather Observations for Cape Wessel

IDD60701

Issued at 6:11 am CST Sunday 2 October 2016 (issued every 10 minutes, with the page automatically refreshed every 10 minutes)

About coastal observations | Map of coastal stations | Coastal observations for NT | Marine services | Other Formats
Station Details ID: 200786 Name: CAPE WESSEL Lat: -11.00 Lon: 136.76 Height: 18.0 m
Data from the previous 72 hours. | See also: Recent months at Cape Wessel
Date/Time
CST
Temp
°C
Wind Pressure Rain since
9am
mm
Weather Cloud Vis
km
Sea
Height
m
Swell
Dir  Spd
kts
Gust
kts
hPa Trend Height
m
Period
s
Dir
02/06:00am 24.3 E 4 5 1011.5 - 0.0 - - - - - - -
02/05:30am 24.3 CALM 0 0 1011.2 - 0.0 - - - - - - -
02/05:00am 24.7 CALM 0 3 1010.9 - 0.0 - - - - - - -
02/04:30am 24.7 ENE 3 3 1010.5 - 0.0 - - - - - - -
02/04:00am 24.6 ENE 3 4 1010.4 - 0.0 - - - - - - -
02/03:30am 24.8 ENE 4 5 1010.3 - 0.0 - - - - - - -
02/03:00am 24.7 ENE 4 4 1010.3 - 0.0 - - - - - - -
02/02:30am 25.0 ENE 4 4 1010.4 - 0.0 - - - - - - -
02/02:00am 24.8 ENE 2 3 1010.5 - 0.0 - - - - - - -
02/01:30am 24.4 ENE 3 4 1010.5 - 0.0 - - - - - - -
02/01:00am 25.1 ENE 2 3 1010.5 - 0.0 - - - - - - -
02/12:30am 25.0 ENE 3 3 1010.6 - 0.0 - - - - - - -
02/12:00am 25.4 CALM 0 0 1010.8 - 0.0 - - - - - - -
 
Date/Time
CST
Temp
°C
Wind Pressure Rain since
9am
mm
Weather Cloud Vis
km
Sea
Height
m
Swell
Dir  Spd
kts
Gust
kts
hPa Trend Height
m
Period
s
Dir
01/11:30pm 25.2 ENE 3 3 1011.0 - 0.0 - - - - - - -
01/11:00pm 25.3 ENE 3 4 1011.0 - 0.0 - - - - - - -
01/10:30pm 25.9 ENE 4 5 1011.1 - 0.0 - - - - - - -
01/10:00pm 26.6 E 5 6 1011.0 - 0.0 - - - - - - -
01/09:30pm 26.9 NE 4 5 1010.9 - 0.0 - - - - - - -
01/09:00pm 26.7 NE 3 4 1010.3 - 0.0 - - - - - - -
01/08:30pm 26.4 NE 5 5 1010.1 - 0.0 - - - - - - -
01/08:00pm 26.6 ENE 5 6 1009.9 - 0.0 - - - - - - -
01/07:30pm 27.2 ENE 5 7 1009.7 - 0.0 - - - - - - -
01/07:00pm 27.4 ENE 6 7 1009.5 - 0.0 - - - - - - -
01/06:30pm 27.6 ENE 7 8 1009.3 - 0.0 - - - - - - -
01/06:00pm 28.3 ENE 7 9 1009.1 - 0.0 - - - - - - -
01/05:30pm 29.4 ENE 7 8 1008.9 - 0.0 - - - - - - -
01/05:00pm 30.2 ENE 7 9 1008.8 - 0.0 - - - - - - -
01/04:30pm 30.7 ENE 7 9 1008.8 - 0.0 - - - - - - -
01/04:00pm 31.5 ENE 7 9 1009.0 - 0.0 - - - - - - -
01/03:30pm 31.6 ENE 7 9 1009.3 - 0.0 - - - - - - -
01/03:00pm 31.9 ESE 7 9 1009.6 - 0.0 - - - - - - -
01/02:30pm 32.2 ENE 7 8 1009.6 - 0.0 - - - - - - -
01/02:00pm 32.2 ENE 8 9 1009.8 - 0.0 - - - - - - -
01/01:30pm 33.0 ENE 9 11 1010.2 - 0.0 - - - - - - -
01/01:00pm 32.8 ENE 8 10 1010.7 - 0.0 - - - - - - -
01/12:30pm 32.3 ENE 9 11 1011.1 - 0.0 - - - - - - -
01/12:00pm 32.6 E 8 10 1011.7 - 0.0 - - - - - - -
01/11:30am 32.9 E 8 10 1012.1 - 0.0 - - - - - - -
01/11:00am 33.0 ESE 8 10 1012.4 - 0.0 - - - - - - -
01/10:30am 32.5 ESE 8 9 1012.7 - 0.0 - - - - - - -
01/10:00am 31.8 E 7 9 1012.9 - 0.0 - - - - - - -
01/09:30am 32.0 E 8 10 1012.9 - 0.0 - - - - - - -
01/09:00am 30.7 ENE 7 10 1012.8 - 0.0 - - - - - - -
01/08:30am 29.8 ENE 7 9 1012.5 - 0.0 - - - - - - -
01/08:00am 29.5 ENE 6 7 1012.2 - 0.0 - - - - - - -
01/07:30am 28.6 ENE 4 5 1011.8 - 0.0 - - - - - - -
01/07:00am 27.3 ENE 3 5 1011.4 - 0.0 - - - - - - -
01/06:30am 25.8 NE 4 5 1010.9 - 0.0 - - - - - - -
01/06:00am 25.8 NE 7 9 1010.4 - 0.0 - - - - - - -
01/05:30am 25.9 NE 7 10 1009.7 - 0.0 - - - - - - -
01/05:00am 26.1 NE 9 11 1009.2 - 0.0 - - - - - - -
01/04:30am 26.2 NE 8 11 1008.8 - 0.0 - - - - - - -
01/04:00am 26.0 NE 8 11 1008.6 - 0.0 - - - - - - -
01/03:30am 26.2 NE 8 10 1008.7 - 0.0 - - - - - - -
01/03:00am 26.3 NE 10 11 1008.6 - 0.0 - - - - - - -
01/02:30am 26.3 ENE 10 11 1008.5 - 0.0 - - - - - - -
01/02:00am 26.3 ENE 9 11 1008.8 - 0.0 - - - - - - -
01/01:30am 26.1 ENE 8 10 1008.8 - 0.0 - - - - - - -
01/01:00am 25.9 E 6 8 1009.0 - 0.0 - - - - - - -
01/12:30am 25.9 E 7 8 1009.5 - 0.0 - - - - - - -
01/12:00am 26.1 E 8 9 1009.8 - 0.0 - - - - - - -
 
Date/Time
CST
Temp
°C
Wind Pressure Rain since
9am
mm
Weather Cloud Vis
km
Sea
Height
m
Swell
Dir  Spd
kts
Gust
kts
hPa Trend Height
m
Period
s
Dir
30/11:30pm 26.2 E 7 9 1010.1 - 0.0 - - - - - - -
30/11:00pm 26.3 E 8 9 1010.5 - 0.0 - - - - - - -
30/10:30pm 26.4 E 7 9 1010.6 - 0.0 - - - - - - -
30/10:00pm 26.5 E 8 10 1010.6 - 0.0 - - - - - - -
30/09:30pm 26.5 E 8 9 1010.4 - 0.0 - - - - - - -
30/09:00pm 26.5 E 8 9 1010.4 - 0.0 - - - - - - -
30/08:30pm 26.7 ESE 9 10 1010.1 - 0.0 - - - - - - -
30/08:00pm 26.7 E 8 9 1009.7 - 0.0 - - - - - - -
30/07:30pm 26.7 E 8 9 1009.2 - 0.0 - - - - - - -
30/07:00pm 26.7 ESE 7 9 1008.8 - 0.0 - - - - - - -
30/06:30pm 27.1 E 7 8 1008.5 - 0.0 - - - - - - -
30/06:00pm 28.1 E 6 7 1008.4 - 0.0 - - - - - - -
30/05:30pm 29.1 E 6 8 1008.2 - 0.0 - - - - - - -
30/05:00pm 29.6 E 6 8 1007.9 - 0.0 - - - - - - -
30/04:30pm 30.2 NE 6 7 1007.6 - 0.0 - - - - - - -
30/04:00pm 30.3 ENE 5 7 1007.5 - 0.0 - - - - - - -
30/03:30pm 31.5 NE 6 7 1007.9 - 0.0 - - - - - - -
30/03:00pm 31.4 ENE 6 7 1008.4 - 0.0 - - - - - - -
30/02:30pm 30.4 NE 6 7 1008.8 - 0.0 - - - - - - -
30/02:00pm 31.0 NE 6 7 1009.0 - 0.0 - - - - - - -
30/01:30pm 31.8 NE 6 8 1009.5 - 0.0 - - - - - - -
30/01:00pm 30.9 NNE 7 8 1009.7 - 0.0 - - - - - - -
30/12:30pm 31.5 NE 6 8 1010.1 - 0.0 - - - - - - -
30/12:00pm 32.1 NNE 6 7 1010.4 - 0.0 - - - - - - -
30/11:30am 30.7 NNE 6 9 1010.8 - 0.0 - - - - - - -
30/11:00am 30.5 NNE 5 7 1011.0 - 0.0 - - - - - - -
30/10:30am 31.8 ENE 6 7 1011.2 - 0.0 - - - - - - -
30/10:00am 30.6 ENE 6 7 1011.2 - 0.0 - - - - - - -
30/09:30am 30.8 ENE 6 8 1011.1 - 0.0 - - - - - - -
30/09:00am 30.1 ENE 6 7 1011.1 - 0.0 - - - - - - -
30/08:30am 29.9 ENE 5 7 1010.8 - 0.0 - - - - - - -
30/08:00am 29.7 ENE 4 5 1010.6 - 0.0 - - - - - - -
30/07:30am 27.8 NE 1 4 1010.3 - 0.0 - - - - - - -
30/07:00am 26.2 NE 2 5 1009.9 - 0.0 - - - - - - -
30/06:30am 25.4 NE 4 5 1009.3 - 0.0 - - - - - - -
30/06:00am 25.0 NE 5 5 1009.0 - 0.0 - - - - - - -
30/05:30am 25.1 NE 5 5 1008.9 - 0.0 - - - - - - -
30/05:00am 25.2 NE 4 5 1008.6 - 0.0 - - - - - - -
30/04:30am 25.2 NNE 5 6 1008.2 - 0.0 - - - - - - -
30/04:00am 25.7 NE 5 6 1008.2 - 0.0 - - - - - - -
30/03:30am 25.8 NNE 8 9 1007.9 - 0.0 - - - - - - -
30/03:00am 25.7 NE 7 9 1008.1 - 0.0 - - - - - - -
30/02:30am 25.6 NE 5 7 1008.6 - 0.0 - - - - - - -
30/02:00am 25.5 ENE 6 7 1008.8 - 0.0 - - - - - - -
30/01:30am 25.1 ENE 5 6 1009.0 - 0.0 - - - - - - -
30/01:00am 25.2 ENE 4 5 1009.4 - 0.0 - - - - - - -
30/12:30am 25.5 ENE 5 6 1009.7 - 0.0 - - - - - - -
30/12:00am 26.0 NE 6 7 1010.1 - 0.0 - - - - - - -
 
Date/Time
CST
Temp
°C
Wind Pressure Rain since
9am
mm
Weather Cloud Vis
km
Sea
Height
m
Swell
Dir  Spd
kts
Gust
kts
hPa Trend Height
m
Period
s
Dir
29/11:30pm 26.4 ENE 7 9 1010.4 - 0.0 - - - - - - -
29/11:00pm 26.5 ENE 7 9 1010.6 - 0.0 - - - - - - -
29/10:30pm 26.7 E 8 10 1010.8 - 0.0 - - - - - - -
29/10:00pm 26.7 ENE 8 9 1010.6 - 0.0 - - - - - - -
29/09:30pm 26.7 E 8 10 1010.4 - 0.0 - - - - - - -
29/09:00pm 26.8 ENE 8 10 1009.9 - 0.0 - - - - - - -
29/08:30pm 26.7 ENE 7 9 1009.6 - 0.0 - - - - - - -
29/08:00pm 26.8 ENE 7 10 1009.3 - 0.0 - - - - - - -
29/07:30pm 26.9 ENE 7 9 1009.0 - 0.0 - - - - - - -
29/07:00pm 27.0 E 8 10 1008.7 - 0.0 - - - - - - -
29/06:30pm 27.2 E 8 11 1008.4 - 0.0 - - - - - - -
29/06:00pm 27.8 ENE 9 11 1008.1 - 0.0 - - - - - - -
29/05:30pm 28.4 ENE 10 13 1007.7 - 0.0 - - - - - - -
29/05:00pm 29.9 NE 8 10 1007.3 - 0.0 - - - - - - -
29/04:30pm 30.0 NE 7 8 1007.3 - 0.0 - - - - - - -
29/04:00pm 31.0 NE 7 9 1007.5 - 0.0 - - - - - - -
29/03:30pm 30.7 NE 7 8 1007.6 - 0.0 - - - - - - -
29/03:00pm 31.8 ENE 8 10 1007.6 - 0.0 - - - - - - -
29/02:30pm 31.8 NE 8 10 1007.7 - 0.0 - - - - - - -
29/02:00pm 32.1 NE 8 11 1008.0 - 0.0 - - - - - - -
29/01:30pm 31.9 NE 7 9 1008.4 - 0.0 - - - - - - -
29/01:00pm 31.3 NE 7 9 1008.7 - 0.0 - - - - - - -
29/12:30pm 31.5 NNE 8 9 1009.1 - 0.0 - - - - - - -
29/12:00pm 32.2 NE 8 10 1009.6 - 0.0 - - - - - - -
29/11:30am 32.6 NE 10 13 1009.6 - 0.0 - - - - - - -
29/11:00am 32.5 ENE 9 11 1010.1 - 0.0 - - - - - - -
29/10:30am 31.6 NE 9 12 1010.3 - 0.0 - - - - - - -
29/10:00am 31.6 NE 9 11 1010.6 - 0.0 - - - - - - -
29/09:30am 30.2 ENE 10 13 1010.5 - 0.0 - - - - - - -
29/09:00am 30.1 NE 12 16 1010.3 - 0.0 - - - - - - -
29/08:30am 29.6 NE 11 14 1010.1 - 0.0 - - - - - - -
29/08:00am 28.4 ENE 9 11 1010.2 - 0.0 - - - - - - -
29/07:30am 27.7 ENE 9 11 1010.1 - 0.0 - - - - - - -
29/07:00am 26.4 ENE 9 11 1009.7 - 0.0 - - - - - - -
29/06:30am 25.7 ENE 7 9 1009.6 - 0.0 - - - - - - -

Other Formats:

Comma delimited format used in spreadsheet applications
http://www.bom.gov.au/fwo/IDD60701/IDD60701.94147.axf

JavaScript Object Notation format (JSON) in row-major order
http://www.bom.gov.au/fwo/IDD60701/IDD60701.94147.json